createdAt,value
2022-12-15T00:03:15.560Z,19.02
2022-12-15T00:08:37.009Z,10.18
2022-12-15T00:13:58.401Z,10.73
2022-12-15T00:19:19.353Z,36.30
2022-12-15T00:24:40.327Z,28.33
2022-12-15T00:30:01.472Z,20.00
2022-12-15T00:35:22.774Z,14.80
2022-12-15T00:40:25.347Z,19.75
2022-12-15T00:45:47.851Z,21.23
2022-12-15T00:50:55.674Z,10.15
2022-12-15T00:56:16.744Z,14.82
2022-12-15T01:01:38.234Z,15.07
2022-12-15T01:06:59.488Z,14.57
2022-12-15T01:12:20.824Z,11.85
2022-12-15T01:17:41.975Z,19.10
2022-12-15T01:22:49.461Z,11.65
2022-12-15T01:27:52.696Z,12.75
2022-12-15T01:32:55.331Z,15.88
2022-12-15T01:37:57.929Z,16.85
2022-12-15T01:43:01.148Z,13.15
2022-12-15T01:48:10.517Z,22.63
2022-12-15T01:53:15.135Z,28.77
2022-12-15T01:58:19.610Z,18.65
2022-12-15T02:08:24.920Z,7.85
2022-12-15T02:13:46.237Z,15.35
2022-12-15T02:19:37.080Z,15.65
2022-12-15T02:25:03.798Z,14.38
2022-12-15T02:30:15.103Z,21.13
2022-12-15T02:35:26.655Z,13.32
2022-12-15T02:40:29.283Z,11.77
2022-12-15T02:45:54.234Z,27.67
2022-12-15T02:51:02.746Z,16.92
2022-12-15T02:56:14.087Z,11.57
2022-12-15T03:01:19.107Z,9.20
2022-12-15T03:06:22.524Z,9.18
2022-12-15T03:11:25.339Z,17.00
2022-12-15T03:16:28.144Z,7.90
2022-12-15T03:21:30.802Z,12.48
2022-12-15T03:26:33.466Z,6.10
2022-12-15T03:31:36.093Z,7.78
2022-12-15T03:36:38.771Z,11.40
2022-12-15T03:41:41.731Z,18.90
2022-12-15T03:46:44.642Z,13.25
2022-12-15T03:51:47.308Z,13.52
2022-12-15T03:56:50.215Z,14.50
2022-12-15T04:01:52.798Z,13.65
2022-12-15T04:06:55.516Z,18.42
2022-12-15T04:11:58.677Z,14.13
2022-12-15T04:17:01.494Z,10.52
2022-12-15T04:22:08.303Z,14.20
2022-12-15T04:27:29.349Z,16.33
2022-12-15T04:32:50.496Z,17.50
2022-12-15T04:38:12.070Z,25.50
2022-12-15T04:43:33.492Z,14.07
2022-12-15T04:48:56.154Z,13.70
2022-12-15T04:54:17.449Z,10.15
2022-12-15T04:59:38.589Z,49.00
2022-12-15T05:04:59.945Z,12.80
2022-12-15T05:10:21.062Z,22.10
2022-12-15T05:15:43.759Z,13.68
2022-12-15T05:21:04.712Z,12.65
2022-12-15T05:26:25.938Z,25.80
2022-12-15T05:31:46.829Z,14.80
2022-12-15T05:36:50.295Z,14.13
2022-12-15T05:41:54.263Z,25.40
2022-12-15T05:46:56.969Z,15.98
2022-12-15T05:51:59.618Z,11.63
2022-12-15T05:57:02.130Z,14.82
2022-12-15T06:02:04.954Z,17.25
2022-12-15T06:07:07.666Z,17.73
2022-12-15T06:12:10.509Z,24.45
2022-12-15T06:17:13.401Z,17.23
2022-12-15T06:22:15.972Z,16.98
2022-12-15T06:27:18.527Z,22.63
2022-12-15T06:32:39.613Z,24.08
2022-12-15T06:37:42.084Z,20.92
2022-12-15T06:42:44.699Z,13.32
2022-12-15T06:47:48.935Z,18.50
2022-12-15T06:52:51.648Z,26.55
2022-12-15T06:57:54.200Z,19.80
2022-12-15T07:02:56.951Z,30.83
2022-12-15T07:07:59.818Z,11.70
2022-12-15T07:13:03.310Z,22.60
2022-12-15T07:18:08.248Z,14.93
2022-12-15T07:23:11.628Z,35.55
2022-12-15T07:28:14.643Z,12.47
2022-12-15T07:33:17.314Z,17.83
2022-12-15T07:38:19.879Z,14.65
2022-12-15T07:43:23.109Z,18.40
2022-12-15T07:48:27.411Z,18.08
2022-12-15T07:53:30.522Z,21.00
2022-12-15T07:58:33.586Z,17.27
2022-12-15T08:03:37.208Z,29.58
2022-12-15T08:08:41.116Z,22.52
2022-12-15T08:24:11.784Z,40.97
2022-12-15T08:34:38.983Z,35.92
2022-12-15T08:39:42.897Z,45.55
2022-12-15T08:44:49.358Z,49.08
2022-12-15T08:49:54.335Z,50.33
2022-12-15T08:54:56.909Z,59.45
2022-12-15T08:59:59.578Z,75.63
2022-12-15T09:05:02.512Z,75.47
2022-12-15T09:10:06.514Z,81.15
2022-12-15T09:15:09.730Z,95.93
2022-12-15T09:20:17.517Z,121.15
2022-12-15T09:25:20.530Z,129.02
2022-12-15T09:30:23.121Z,126.70
2022-12-15T09:35:28.926Z,170.73
2022-12-15T09:40:33.424Z,207.73
2022-12-15T09:45:41.738Z,268.17
2022-12-15T09:50:46.245Z,329.23
2022-12-15T10:01:10.035Z,359.80
2022-12-15T10:06:31.335Z,313.40
2022-12-15T10:11:50.444Z,455.42
2022-12-15T10:16:59.374Z,458.63
2022-12-15T10:22:01.925Z,484.25
2022-12-15T10:27:19.557Z,497.35
2022-12-15T10:32:57.303Z,518.50
2022-12-15T10:38:07.164Z,532.28
2022-12-15T10:43:38.423Z,552.97
2022-12-15T10:48:52.078Z,481.55
2022-12-15T10:54:16.423Z,547.92
2022-12-15T10:59:30.860Z,572.03
2022-12-15T11:04:33.992Z,566.33
2022-12-15T11:09:38.408Z,564.70
2022-12-15T11:14:47.581Z,542.75
2022-12-15T11:20:02.281Z,555.15
2022-12-15T11:25:15.698Z,557.25
2022-12-15T11:30:22.244Z,563.05
2022-12-15T11:35:29.406Z,552.42
2022-12-15T11:40:42.731Z,541.55
2022-12-15T11:46:21.545Z,622.92
2022-12-15T11:51:49.057Z,586.00
2022-12-15T11:57:14.617Z,571.22
2022-12-15T12:02:47.728Z,517.22
2022-12-15T12:07:55.818Z,482.33
2022-12-15T12:13:23.327Z,451.23
2022-12-15T12:18:29.179Z,507.17
2022-12-15T12:23:58.549Z,524.40
2022-12-15T12:29:08.477Z,533.28
2022-12-15T12:34:29.068Z,549.92
2022-12-15T12:39:32.691Z,523.22
2022-12-15T12:44:37.784Z,506.40
2022-12-15T12:49:45.326Z,465.35
2022-12-15T12:55:24.330Z,524.47
2022-12-15T13:00:28.911Z,512.25
2022-12-15T13:05:34.339Z,496.40
2022-12-15T13:10:38.909Z,468.55
2022-12-15T13:15:51.035Z,445.42
2022-12-15T13:20:57.058Z,437.05
2022-12-15T13:26:00.463Z,446.23
2022-12-15T13:36:41.491Z,437.42
2022-12-15T13:42:15.130Z,439.15
2022-12-15T13:47:15.694Z,413.67
2022-12-15T13:53:08.045Z,438.33
2022-12-15T13:58:04.279Z,461.67
2022-12-15T14:03:10.974Z,386.58
2022-12-15T14:08:14.881Z,449.05
2022-12-15T14:13:36.936Z,458.77
2022-12-15T14:18:42.271Z,465.25
2022-12-15T14:24:11.432Z,426.88
2022-12-15T14:29:10.507Z,406.58
2022-12-15T14:34:37.221Z,425.25
2022-12-15T14:39:50.360Z,444.45
2022-12-15T14:44:57.474Z,430.13
2022-12-15T14:50:03.794Z,421.67
2022-12-15T14:55:37.392Z,395.20
2022-12-15T15:00:51.676Z,430.33
2022-12-15T15:03:15.602Z,477.80
2022-12-15T15:06:00.391Z,425.10
2022-12-15T15:11:30.594Z,427.00
2022-12-15T15:16:33.281Z,373.33
2022-12-15T15:21:39.021Z,361.10
2022-12-15T15:26:41.816Z,368.00
2022-12-15T15:31:44.708Z,332.67
2022-12-15T15:36:47.782Z,344.33
2022-12-15T15:41:50.471Z,320.80
2022-12-15T15:46:53.417Z,266.70
2022-12-15T15:51:56.785Z,300.25
2022-12-15T15:56:59.305Z,278.25
2022-12-15T16:02:04.451Z,262.35
2022-12-15T16:07:13.729Z,360.77
2022-12-15T16:12:33.818Z,373.50
2022-12-15T16:17:36.720Z,364.42
2022-12-15T16:22:39.939Z,329.63
2022-12-15T16:27:42.591Z,387.55
2022-12-15T16:32:45.372Z,327.45
2022-12-15T16:37:49.685Z,278.63
2022-12-15T16:43:05.812Z,315.08
2022-12-15T16:48:08.857Z,301.90
2022-12-15T16:53:22.885Z,268.70
2022-12-15T16:58:27.764Z,171.65
2022-12-15T17:03:31.747Z,142.73
2022-12-15T17:08:41.204Z,127.38
2022-12-15T17:13:47.926Z,201.45
2022-12-15T17:18:51.477Z,239.23
2022-12-15T17:23:58.056Z,203.68
2022-12-15T17:29:17.053Z,154.30
2022-12-15T17:34:27.240Z,122.65
2022-12-15T17:39:30.845Z,97.75
2022-12-15T17:44:38.370Z,126.05
2022-12-15T17:49:41.813Z,80.57
2022-12-15T17:54:44.536Z,85.00
2022-12-15T17:59:47.365Z,146.40
2022-12-15T18:04:50.126Z,173.20
2022-12-15T18:09:52.836Z,161.32
2022-12-15T18:14:56.162Z,202.88
2022-12-15T18:19:58.811Z,240.20
2022-12-15T18:25:01.612Z,256.92
2022-12-15T18:30:05.301Z,283.33
2022-12-15T18:35:17.404Z,318.23
2022-12-15T18:40:22.062Z,291.63
2022-12-15T18:45:28.210Z,241.35
2022-12-15T18:50:31.016Z,273.48
2022-12-15T18:55:33.653Z,269.90
2022-12-15T19:00:36.930Z,255.40
2022-12-15T19:05:40.059Z,266.70
2022-12-15T19:10:50.077Z,235.25
2022-12-15T19:15:55.621Z,221.23
2022-12-15T19:21:18.314Z,223.27
2022-12-15T19:26:20.994Z,183.98
2022-12-15T19:31:23.658Z,148.65
2022-12-15T19:36:29.095Z,164.00
2022-12-15T19:41:36.563Z,175.63
2022-12-15T19:46:41.225Z,202.15
2022-12-15T19:56:46.245Z,215.88
2022-12-15T20:01:53.011Z,224.27
2022-12-15T20:06:55.719Z,211.93
2022-12-15T20:12:00.202Z,213.95
2022-12-15T20:17:04.070Z,239.38
2022-12-15T20:22:27.664Z,220.13
2022-12-15T20:27:30.390Z,214.90
2022-12-15T20:32:38.188Z,194.10
2022-12-15T20:37:41.682Z,203.88
2022-12-15T20:42:44.889Z,241.35
2022-12-15T20:47:49.512Z,205.68
2022-12-15T20:52:52.712Z,235.30
2022-12-15T20:57:57.769Z,239.35
2022-12-15T21:03:00.879Z,235.82
2022-12-15T21:08:11.037Z,231.00
2022-12-15T21:13:18.553Z,238.40
2022-12-15T21:18:57.645Z,279.52
2022-12-15T21:23:44.919Z,265.77
2022-12-15T21:28:49.255Z,270.88
2022-12-15T21:33:53.416Z,274.92
2022-12-15T21:38:57.656Z,300.10
2022-12-15T21:44:00.719Z,309.58
2022-12-15T21:49:15.132Z,275.55
2022-12-15T21:54:20.284Z,238.35
2022-12-15T21:59:24.922Z,253.07
2022-12-15T22:04:33.667Z,243.82
2022-12-15T22:09:37.603Z,241.30
2022-12-15T22:14:40.303Z,218.97
2022-12-15T22:19:43.254Z,238.38
2022-12-15T22:24:46.667Z,211.18
2022-12-15T22:29:50.282Z,227.63
2022-12-15T22:34:52.884Z,206.43
2022-12-15T22:39:55.593Z,237.20
2022-12-15T22:44:58.418Z,238.85
2022-12-15T22:50:01.287Z,220.52
2022-12-15T22:55:04.223Z,219.15
2022-12-15T23:00:09.675Z,174.95
2022-12-15T23:05:17.619Z,111.32
2022-12-15T23:10:39.318Z,175.82
2022-12-15T23:16:00.496Z,186.43
2022-12-15T23:21:03.312Z,187.13
2022-12-15T23:26:08.131Z,191.80
2022-12-15T23:31:11.625Z,199.02
2022-12-15T23:36:14.283Z,188.88
2022-12-15T23:41:18.613Z,197.85
2022-12-15T23:46:21.493Z,186.80
2022-12-15T23:51:24.173Z,194.05
2022-12-15T23:56:26.785Z,156.20
